Time;durP1;ratioP1;P1;durP2;ratioP2;P2;SDS_P1;SDS_P2;PMS_P1;PMS_P2;Temp;Humidity;BMP_temperature;BMP_pressure;BME280_temperature;BME280_humidity;BME280_pressure;Samples;Min_cycle;Max_cycle;Signal;HPM_P1;HPM_P2
2023/10/23 00:01:38;;;;;;;6.30;3.05;;;20.00;67.40;;;;;;5058090;28;20040;-57
2023/10/23 00:04:07;;;;;;;5.10;2.60;;;20.00;67.70;;;;;;5070811;28;20452;-57
2023/10/23 00:06:33;;;;;;;7.00;3.10;;;20.00;67.60;;;;;;5072633;28;20451;-57
2023/10/23 00:09:00;;;;;;;5.88;2.70;;;20.00;67.40;;;;;;5071480;28;20028;-56
2023/10/23 00:11:28;;;;;;;8.68;3.08;;;20.00;67.70;;;;;;5072283;28;20068;-52
2023/10/23 00:13:54;;;;;;;5.88;2.88;;;20.00;67.70;;;;;;5071449;28;20027;-52
2023/10/23 00:16:21;;;;;;;8.65;3.03;;;20.00;67.60;;;;;;5071703;28;20024;-52
2023/10/23 00:18:48;;;;;;;6.05;2.83;;;20.00;68.20;;;;;;5070701;28;20515;-55
2023/10/23 00:21:14;;;;;;;6.75;2.85;;;20.00;67.60;;;;;;5070024;28;20151;-57
2023/10/23 00:23:40;;;;;;;6.03;2.40;;;19.90;67.50;;;;;;5068764;28;20028;-57
2023/10/23 00:26:06;;;;;;;8.60;3.08;;;20.00;67.80;;;;;;5072174;28;20073;-53
2023/10/23 00:28:33;;;;;;;5.20;2.78;;;20.00;67.90;;;;;;5071429;28;20036;-54
2023/10/23 00:30:59;;;;;;;5.18;2.80;;;20.00;67.30;;;;;;5061431;28;20373;-57
2023/10/23 00:33:25;;;;;;;6.22;2.70;;;20.00;67.90;;;;;;5071031;28;20040;-56
2023/10/23 00:35:51;;;;;;;5.30;2.70;;;19.90;67.90;;;;;;5044259;28;20025;-54
2023/10/23 00:38:17;;;;;;;6.28;3.00;;;19.90;68.20;;;;;;5070983;28;20029;-57
2023/10/23 00:40:43;;;;;;;6.80;2.80;;;19.90;68.30;;;;;;5070351;28;20024;-54
2023/10/23 00:43:21;;;;;;;5.72;2.80;;;19.90;67.50;;;;;;5069980;28;20506;-54
2023/10/23 00:46:03;;;;;;;3.90;2.40;;;19.90;68.00;;;;;;5058239;28;20036;-57
2023/10/23 00:48:29;;;;;;;6.00;2.80;;;20.00;68.20;;;;;;5064535;28;20395;-55
2023/10/23 00:51:00;;;;;;;8.77;2.97;;;19.90;68.30;;;;;;5061306;28;20025;-57
2023/10/23 00:53:31;;;;;;;5.15;2.83;;;19.90;67.90;;;;;;5067389;28;20090;-57
2023/10/23 00:55:58;;;;;;;7.85;3.10;;;19.90;68.40;;;;;;5071462;28;20070;-56
2023/10/23 00:58:27;;;;;;;4.22;2.58;;;20.00;68.20;;;;;;5055483;28;20091;-57
2023/10/23 01:00:58;;;;;;;5.45;2.78;;;19.90;67.50;;;;;;5066608;28;20107;-55
2023/10/23 01:03:25;;;;;;;5.07;2.80;;;19.90;67.60;;;;;;5068212;28;20407;-57
2023/10/23 01:05:50;;;;;;;7.90;2.45;;;19.90;68.20;;;;;;5071594;28;20107;-57
2023/10/23 01:08:17;;;;;;;7.93;3.15;;;20.00;67.10;;;;;;5066143;28;20108;-57
2023/10/23 01:10:43;;;;;;;7.25;2.80;;;19.90;68.30;;;;;;5071482;28;20025;-51
2023/10/23 01:13:09;;;;;;;4.68;2.50;;;19.90;68.30;;;;;;5070496;28;20024;-55
2023/10/23 01:15:35;;;;;;;7.13;2.88;;;20.00;67.50;;;;;;5050959;28;20020;-57
2023/10/23 01:18:02;;;;;;;7.50;2.80;;;19.90;67.40;;;;;;5058632;28;20032;-57
2023/10/23 01:20:29;;;;;;;4.78;2.35;;;20.00;67.30;;;;;;5058808;28;20047;-56
2023/10/23 01:23:04;;;;;;;4.25;2.70;;;20.00;68.30;;;;;;5060456;28;20111;-54
2023/10/23 01:25:29;;;;;;;5.28;2.83;;;20.00;67.90;;;;;;5063973;28;20025;-54
2023/10/23 01:27:55;;;;;;;8.10;2.90;;;20.00;67.10;;;;;;5070429;28;20077;-55
2023/10/23 01:30:21;;;;;;;5.97;2.67;;;20.00;68.20;;;;;;5070410;28;20526;-56
2023/10/23 01:32:47;;;;;;;6.97;2.40;;;20.00;67.40;;;;;;5070158;28;20044;-56
2023/10/23 01:35:13;;;;;;;3.75;2.47;;;20.00;69.20;;;;;;5068678;28;20582;-57
2023/10/23 01:37:41;;;;;;;6.10;2.97;;;20.00;67.30;;;;;;5070445;28;20074;-56
2023/10/23 01:40:08;;;;;;;10.68;2.75;;;20.00;68.00;;;;;;5070573;28;20017;-57
2023/10/23 01:42:34;;;;;;;4.60;2.58;;;20.00;67.70;;;;;;5061522;28;20036;-55
2023/10/23 01:45:00;;;;;;;5.97;3.00;;;20.00;68.30;;;;;;5071190;28;20029;-54
2023/10/23 01:47:27;;;;;;;4.95;2.72;;;20.00;68.10;;;;;;5070124;28;20586;-56
2023/10/23 01:49:53;;;;;;;5.72;2.75;;;20.00;68.40;;;;;;5070430;28;20094;-52
2023/10/23 01:52:19;;;;;;;4.97;2.80;;;20.00;68.00;;;;;;5070363;28;20043;-52
2023/10/23 01:54:45;;;;;;;5.18;2.50;;;20.00;67.60;;;;;;5053226;28;20021;-57
2023/10/23 01:57:14;;;;;;;3.90;2.58;;;20.00;67.80;;;;;;5056372;28;20021;-57
2023/10/23 01:59:40;;;;;;;7.07;2.55;;;20.00;69.00;;;;;;5061251;28;20029;-57
2023/10/23 02:02:06;;;;;;;6.68;2.70;;;20.00;67.70;;;;;;5064281;28;20522;-55
2023/10/23 02:04:34;;;;;;;6.43;3.08;;;20.00;67.50;;;;;;5073142;28;20024;-56
2023/10/23 02:07:00;;;;;;;7.50;2.92;;;19.90;67.50;;;;;;5062986;28;20055;-55
2023/10/23 02:09:26;;;;;;;3.80;2.53;;;19.90;67.50;;;;;;5073931;28;20568;-54
2023/10/23 02:11:52;;;;;;;5.65;2.90;;;20.00;67.60;;;;;;5064907;28;20210;-57
2023/10/23 02:14:18;;;;;;;7.57;3.00;;;19.90;67.30;;;;;;5073939;28;20075;-57
2023/10/23 02:16:43;;;;;;;4.10;2.65;;;20.00;67.40;;;;;;5056983;28;20051;-54
2023/10/23 02:19:09;;;;;;;5.18;2.78;;;19.90;67.40;;;;;;5062680;28;20036;-55
2023/10/23 02:21:36;;;;;;;5.85;2.80;;;19.90;67.80;;;;;;5060162;28;20025;-57
2023/10/23 02:24:02;;;;;;;5.75;2.70;;;20.00;67.30;;;;;;5077084;28;20287;-53
2023/10/23 02:26:29;;;;;;;6.05;2.60;;;19.90;67.40;;;;;;5074566;28;20028;-57
2023/10/23 02:28:55;;;;;;;5.00;3.10;;;20.00;67.90;;;;;;5060163;28;20032;-55
2023/10/23 02:31:22;;;;;;;5.75;2.95;;;20.00;67.90;;;;;;5074150;28;20510;-53
2023/10/23 02:33:49;;;;;;;6.13;2.50;;;19.90;67.90;;;;;;5066459;28;20035;-51
2023/10/23 02:36:15;;;;;;;7.03;3.00;;;19.90;67.60;;;;;;5072433;28;20430;-52
2023/10/23 02:38:42;;;;;;;6.40;2.53;;;19.90;67.50;;;;;;5068541;28;20403;-56
2023/10/23 02:41:07;;;;;;;6.60;3.08;;;19.90;67.60;;;;;;5072314;28;20033;-57
2023/10/23 02:43:33;;;;;;;3.58;2.20;;;19.90;67.90;;;;;;5073424;28;20023;-51
2023/10/23 02:46:04;;;;;;;4.57;2.67;;;19.90;68.30;;;;;;5063651;28;20155;-56
2023/10/23 02:48:30;;;;;;;5.85;3.08;;;19.90;67.60;;;;;;5073543;28;20029;-51
2023/10/23 02:50:57;;;;;;;6.68;3.05;;;20.00;67.50;;;;;;5064200;28;20032;-52
2023/10/23 02:53:23;;;;;;;5.82;2.80;;;19.90;67.40;;;;;;5072508;28;20033;-56
2023/10/23 02:55:49;;;;;;;5.57;2.70;;;19.90;67.50;;;;;;5073111;28;20029;-55
2023/10/23 02:58:16;;;;;;;4.30;2.50;;;19.90;67.60;;;;;;5058094;28;20079;-56
2023/10/23 03:00:42;;;;;;;3.85;2.60;;;19.90;67.80;;;;;;5062638;28;20403;-57
2023/10/23 03:03:09;;;;;;;6.28;3.08;;;19.90;67.80;;;;;;5062472;28;20055;-54
2023/10/23 03:05:35;;;;;;;5.13;2.60;;;19.90;67.70;;;;;;5073719;28;20036;-56
2023/10/23 03:08:02;;;;;;;4.93;2.80;;;19.90;67.50;;;;;;5064044;28;20162;-57
2023/10/23 03:10:29;;;;;;;7.70;2.95;;;19.90;67.50;;;;;;5064130;28;20044;-57
2023/10/23 03:12:55;;;;;;;5.05;2.70;;;19.90;67.60;;;;;;5057506;28;20024;-57
2023/10/23 03:15:21;;;;;;;5.22;2.95;;;19.90;67.60;;;;;;5073757;28;20023;-54
2023/10/23 03:17:47;;;;;;;4.97;2.75;;;19.90;67.70;;;;;;5072844;28;20078;-57
2023/10/23 03:20:13;;;;;;;7.03;3.05;;;19.90;68.60;;;;;;5072681;28;20029;-57
2023/10/23 03:22:39;;;;;;;5.45;2.80;;;19.90;68.80;;;;;;5054043;28;20099;-57
2023/10/23 03:25:07;;;;;;;5.03;3.00;;;19.90;68.70;;;;;;5058558;28;20107;-54
2023/10/23 03:27:33;;;;;;;4.82;2.72;;;19.90;67.90;;;;;;5071967;28;20038;-57
2023/10/23 03:29:59;;;;;;;8.50;3.17;;;19.90;68.40;;;;;;5069819;28;20083;-57
2023/10/23 03:32:26;;;;;;;7.05;3.22;;;19.90;68.30;;;;;;5072904;28;20032;-57
2023/10/23 03:34:51;;;;;;;4.53;2.75;;;19.90;68.90;;;;;;5072363;28;20107;-57
2023/10/23 03:37:18;;;;;;;5.70;3.08;;;19.90;68.50;;;;;;5070642;28;20454;-55
2023/10/23 03:39:45;;;;;;;5.47;3.17;;;19.90;69.10;;;;;;5071428;28;20055;-57
2023/10/23 03:42:11;;;;;;;6.00;3.03;;;19.90;67.90;;;;;;5071865;28;20064;-54
2023/10/23 03:44:37;;;;;;;9.82;3.13;;;19.90;68.30;;;;;;5072315;28;20028;-57
2023/10/23 03:47:04;;;;;;;7.80;3.38;;;19.90;68.20;;;;;;5071810;28;20024;-57
2023/10/23 03:49:30;;;;;;;5.68;2.90;;;19.90;68.70;;;;;;5072293;28;20036;-57
2023/10/23 03:51:56;;;;;;;9.23;3.33;;;19.90;69.00;;;;;;5071219;28;20020;-57
2023/10/23 03:54:22;;;;;;;11.05;3.38;;;20.00;68.40;;;;;;5072096;28;20029;-57
2023/10/23 03:56:48;;;;;;;5.95;3.25;;;19.90;68.80;;;;;;5071016;28;20028;-57
2023/10/23 03:59:14;;;;;;;7.97;3.40;;;19.90;67.90;;;;;;5070668;28;20038;-57
2023/10/23 04:01:40;;;;;;;8.15;3.40;;;20.00;67.90;;;;;;5069020;28;20079;-57
2023/10/23 04:04:07;;;;;;;7.65;3.20;;;20.00;69.20;;;;;;5071522;28;20078;-57
2023/10/23 04:06:32;;;;;;;6.25;2.83;;;20.00;68.00;;;;;;5070781;28;20025;-56
2023/10/23 04:08:58;;;;;;;11.95;3.92;;;20.00;68.60;;;;;;5071252;28;20365;-57
2023/10/23 04:11:25;;;;;;;8.63;3.50;;;20.00;67.40;;;;;;5072257;28;20032;-57
2023/10/23 04:13:50;;;;;;;7.40;3.50;;;20.00;68.20;;;;;;5071718;28;20020;-57
2023/10/23 04:16:16;;;;;;;12.23;3.20;;;20.00;68.50;;;;;;5070686;28;20479;-57
2023/10/23 04:18:43;;;;;;;9.40;3.67;;;20.00;68.60;;;;;;5071763;28;20013;-57
2023/10/23 04:21:11;;;;;;;6.40;3.60;;;20.00;69.10;;;;;;5071407;28;20025;-57
2023/10/23 04:23:38;;;;;;;8.52;4.10;;;20.00;68.20;;;;;;5071322;28;20448;-57
2023/10/23 04:26:08;;;;;;;8.55;3.65;;;20.00;68.60;;;;;;5070193;28;20111;-57
2023/10/23 04:28:36;;;;;;;7.25;3.70;;;20.00;68.50;;;;;;5071252;28;20113;-57
2023/10/23 04:31:03;;;;;;;11.07;3.95;;;19.90;68.70;;;;;;5067628;28;20032;-57
2023/10/23 04:33:29;;;;;;;7.40;3.67;;;19.90;68.40;;;;;;5071879;28;20024;-57
2023/10/23 04:35:56;;;;;;;6.68;3.50;;;20.00;68.20;;;;;;5071749;28;20025;-56
2023/10/23 04:38:23;;;;;;;8.18;3.83;;;20.00;68.40;;;;;;5070580;28;20074;-57
2023/10/23 04:40:50;;;;;;;6.28;3.28;;;20.00;68.30;;;;;;5067649;28;20048;-57
2023/10/23 04:43:16;;;;;;;10.80;3.80;;;19.90;68.30;;;;;;5069675;28;20024;-56
2023/10/23 04:45:42;;;;;;;6.50;3.22;;;20.00;68.60;;;;;;5070132;28;20450;-56
2023/10/23 04:48:09;;;;;;;7.35;3.33;;;19.90;68.60;;;;;;5071190;28;20028;-55
2023/10/23 04:50:37;;;;;;;7.13;3.35;;;20.00;68.30;;;;;;5071705;28;20029;-57
2023/10/23 04:53:03;;;;;;;11.07;4.07;;;19.90;68.40;;;;;;5067494;28;20488;-56
2023/10/23 04:55:38;;;;;;;10.70;3.97;;;20.00;68.20;;;;;;5070880;28;20043;-56
2023/10/23 04:58:05;;;;;;;10.32;3.72;;;20.00;68.20;;;;;;5069948;28;20024;-57
2023/10/23 05:00:34;;;;;;;9.32;3.42;;;20.00;69.40;;;;;;5070594;28;20028;-55
2023/10/23 05:03:00;;;;;;;8.48;3.00;;;20.00;68.00;;;;;;5070309;28;20474;-55
2023/10/23 05:05:26;;;;;;;6.78;3.15;;;19.90;67.00;;;;;;5071631;28;20044;-56
2023/10/23 05:07:52;;;;;;;8.02;3.33;;;19.90;66.70;;;;;;5070521;28;20096;-56
2023/10/23 05:10:18;;;;;;;8.43;3.10;;;19.90;67.10;;;;;;5071553;28;20025;-54
2023/10/23 05:12:45;;;;;;;8.88;2.97;;;19.90;67.10;;;;;;5069184;28;20029;-56
2023/10/23 05:15:11;;;;;;;9.50;3.92;;;19.90;67.10;;;;;;5070353;28;20021;-56
2023/10/23 05:17:37;;;;;;;6.13;3.45;;;20.00;67.10;;;;;;5070847;28;20051;-56
2023/10/23 05:20:04;;;;;;;8.77;3.08;;;19.90;67.00;;;;;;5069653;28;20027;-56
2023/10/23 05:22:30;;;;;;;7.43;3.38;;;19.90;67.00;;;;;;5069598;28;20028;-53
2023/10/23 05:24:55;;;;;;;11.35;3.28;;;19.90;67.00;;;;;;5071277;28;20021;-54
2023/10/23 05:27:21;;;;;;;9.25;3.58;;;19.90;67.00;;;;;;5069542;28;20373;-56
2023/10/23 05:29:47;;;;;;;8.65;3.25;;;19.90;66.90;;;;;;5070555;28;20502;-56
2023/10/23 05:32:13;;;;;;;9.35;4.30;;;19.90;66.90;;;;;;5068856;28;20058;-51
2023/10/23 05:34:38;;;;;;;7.05;3.60;;;19.90;66.80;;;;;;5067332;28;20020;-52
2023/10/23 05:37:04;;;;;;;7.15;3.55;;;19.90;66.70;;;;;;5057505;28;20050;-56
2023/10/23 05:39:30;;;;;;;7.22;3.35;;;19.90;66.70;;;;;;5071689;28;20479;-56
2023/10/23 05:41:56;;;;;;;8.73;3.47;;;19.90;66.70;;;;;;5069116;28;20419;-56
2023/10/23 05:44:21;;;;;;;8.40;3.30;;;19.90;66.70;;;;;;5070269;28;20062;-53
2023/10/23 05:46:47;;;;;;;8.20;3.65;;;19.90;66.90;;;;;;5070096;28;20391;-56
2023/10/23 05:49:13;;;;;;;7.53;3.75;;;19.90;66.70;;;;;;5071096;28;20033;-55
2023/10/23 05:51:39;;;;;;;11.02;3.70;;;19.90;66.50;;;;;;5068588;28;20048;-56
2023/10/23 05:54:05;;;;;;;7.97;3.55;;;19.90;66.50;;;;;;5056743;23;20037;-54
2023/10/23 05:56:30;;;;;;;5.95;3.15;;;19.90;66.50;;;;;;5046316;28;20076;-52
2023/10/23 05:58:56;;;;;;;5.60;3.33;;;19.90;66.50;;;;;;5030344;28;20026;-52
2023/10/23 06:01:22;;;;;;;7.60;3.47;;;19.90;66.40;;;;;;5027518;28;20100;-54
2023/10/23 06:03:48;;;;;;;6.25;3.45;;;19.90;66.50;;;;;;5014223;28;20493;-54
2023/10/23 06:06:14;;;;;;;5.50;3.50;;;19.90;66.40;;;;;;5011198;28;20393;-52
2023/10/23 06:08:40;;;;;;;5.28;3.08;;;19.90;66.40;;;;;;5010955;28;20544;-50
2023/10/23 06:11:12;;;;;;;8.75;3.40;;;19.90;66.20;;;;;;5010840;28;20029;-54
2023/10/23 06:13:38;;;;;;;8.57;3.30;;;19.90;66.20;;;;;;5008429;28;20500;-51
2023/10/23 06:16:05;;;;;;;6.05;3.33;;;20.00;66.90;;;;;;5006705;28;20018;-53
2023/10/23 06:18:35;;;;;;;7.72;3.75;;;20.00;66.10;;;;;;5009149;28;20061;-48
2023/10/23 06:21:05;;;;;;;9.38;3.22;;;20.00;66.20;;;;;;5011517;28;20033;-52
2023/10/23 06:23:35;;;;;;;7.85;3.70;;;20.00;66.10;;;;;;5010022;28;20030;-49
2023/10/23 06:26:01;;;;;;;6.88;3.58;;;20.00;66.20;;;;;;5008872;28;20071;-49
2023/10/23 06:28:27;;;;;;;6.40;3.28;;;20.00;66.10;;;;;;5009461;28;20030;-49
2023/10/23 06:30:52;;;;;;;15.15;3.55;;;20.00;66.10;;;;;;5007487;28;20088;-47
2023/10/23 06:33:18;;;;;;;13.05;3.42;;;20.00;67.20;;;;;;5008474;28;20018;-51
2023/10/23 06:35:44;;;;;;;15.65;3.72;;;20.10;67.90;;;;;;5009187;28;20022;-50
2023/10/23 06:38:10;;;;;;;11.60;3.92;;;20.10;66.50;;;;;;5007942;28;20087;-46
2023/10/23 06:40:36;;;;;;;12.82;3.70;;;20.10;66.40;;;;;;5014556;28;20018;-55
2023/10/23 06:43:02;;;;;;;12.23;4.30;;;20.10;66.10;;;;;;5011899;28;20029;-50
2023/10/23 06:45:28;;;;;;;7.65;3.88;;;20.10;66.50;;;;;;5011763;28;20030;-50
2023/10/23 06:47:54;;;;;;;13.20;4.22;;;20.10;66.70;;;;;;5012361;28;20461;-49
2023/10/23 06:50:19;;;;;;;19.33;4.78;;;20.10;66.90;;;;;;5013093;28;20124;-51
2023/10/23 06:52:46;;;;;;;27.17;5.25;;;20.10;67.90;;;;;;5013692;28;20552;-52
2023/10/23 06:55:12;;;;;;;30.42;4.63;;;20.10;69.10;;;;;;5013878;28;20026;-53
2023/10/23 06:57:38;;;;;;;30.42;5.57;;;20.10;69.70;;;;;;5014304;28;20022;-47
2023/10/23 07:00:06;;;;;;;21.98;6.00;;;20.10;68.40;;;;;;5013590;28;20108;-49
2023/10/23 07:02:32;;;;;;;23.45;5.45;;;20.10;68.60;;;;;;5012802;28;20026;-49
2023/10/23 07:04:58;;;;;;;26.33;5.13;;;20.10;69.00;;;;;;5014368;28;20123;-49
2023/10/23 07:07:24;;;;;;;20.08;5.82;;;20.10;69.60;;;;;;5014415;28;20424;-48
2023/10/23 07:09:53;;;;;;;13.90;4.88;;;20.10;69.80;;;;;;5012544;28;20503;-49
2023/10/23 07:12:19;;;;;;;17.00;5.05;;;20.10;68.30;;;;;;5013606;28;20022;-52
2023/10/23 07:14:45;;;;;;;17.67;4.70;;;20.10;68.60;;;;;;5010656;28;20037;-55
2023/10/23 07:17:10;;;;;;;11.73;3.60;;;20.10;68.90;;;;;;5011918;28;20401;-55
2023/10/23 07:19:36;;;;;;;14.77;4.22;;;20.10;69.00;;;;;;5012970;28;20160;-50
2023/10/23 07:22:03;;;;;;;37.10;4.40;;;20.10;68.60;;;;;;5012463;28;20492;-53
2023/10/23 07:24:29;;;;;;;18.65;4.78;;;20.10;68.70;;;;;;5013062;28;20025;-54
2023/10/23 07:26:54;;;;;;;19.40;4.00;;;20.10;68.50;;;;;;5013968;28;20021;-57
2023/10/23 07:29:20;;;;;;;13.88;4.40;;;20.10;67.70;;;;;;5013840;28;20037;-53
2023/10/23 07:31:46;;;;;;;11.10;3.88;;;20.10;68.60;;;;;;5013459;28;20036;-54
2023/10/23 07:34:12;;;;;;;12.55;4.07;;;20.10;68.80;;;;;;5013741;28;20026;-52
2023/10/23 07:36:39;;;;;;;12.52;3.67;;;20.10;68.00;;;;;;5013610;28;20080;-49
2023/10/23 07:39:05;;;;;;;13.88;3.45;;;20.00;68.20;;;;;;5012467;28;20018;-54
2023/10/23 07:41:31;;;;;;;11.57;3.67;;;20.00;68.20;;;;;;5013277;28;20036;-53
2023/10/23 07:43:57;;;;;;;10.93;3.65;;;20.10;68.50;;;;;;5013392;28;20026;-53
2023/10/23 07:46:22;;;;;;;7.78;3.72;;;20.10;68.40;;;;;;5013556;28;20042;-53
2023/10/23 07:48:48;;;;;;;11.55;4.07;;;20.00;68.10;;;;;;5013521;28;20030;-53
2023/10/23 07:51:14;;;;;;;9.60;3.30;;;20.00;68.10;;;;;;5012986;28;20038;-56
2023/10/23 07:53:40;;;;;;;8.43;3.60;;;20.00;68.10;;;;;;5013199;28;20110;-52
2023/10/23 07:56:06;;;;;;;10.30;3.47;;;20.10;68.40;;;;;;5013288;28;20468;-50
2023/10/23 07:58:32;;;;;;;14.23;3.85;;;20.00;68.00;;;;;;5013319;28;20030;-51
2023/10/23 08:01:08;;;;;;;14.38;3.63;;;20.00;68.40;;;;;;5012684;28;20463;-54
2023/10/23 08:03:35;;;;;;;9.43;3.60;;;20.00;67.60;;;;;;5013631;28;20550;-55
2023/10/23 08:06:03;;;;;;;12.40;3.30;;;20.00;67.30;;;;;;5013161;28;20559;-57
2023/10/23 08:08:34;;;;;;;10.68;3.60;;;20.00;67.80;;;;;;5013272;28;20034;-57
2023/10/23 08:11:01;;;;;;;12.98;3.50;;;20.00;67.50;;;;;;5012743;28;20054;-53
2023/10/23 08:13:27;;;;;;;7.70;3.25;;;20.10;67.50;;;;;;5012920;28;20270;-54
2023/10/23 08:15:53;;;;;;;10.38;3.50;;;20.00;67.50;;;;;;5012946;28;20454;-57
2023/10/23 08:18:19;;;;;;;12.05;3.50;;;20.00;67.20;;;;;;5012962;28;20026;-54
2023/10/23 08:20:44;;;;;;;11.65;3.42;;;20.00;67.10;;;;;;5012785;28;20455;-56
2023/10/23 08:23:10;;;;;;;9.63;3.50;;;20.00;67.60;;;;;;5012424;28;20018;-54
2023/10/23 08:25:36;;;;;;;7.15;3.70;;;20.00;67.20;;;;;;5012784;28;20032;-54
2023/10/23 08:28:02;;;;;;;8.82;3.50;;;20.00;66.50;;;;;;5012851;28;20026;-57
2023/10/23 08:30:28;;;;;;;10.77;3.38;;;20.00;67.60;;;;;;5013004;28;20026;-54
2023/10/23 08:32:54;;;;;;;12.65;3.10;;;20.00;67.00;;;;;;5012292;28;20032;-55
2023/10/23 08:35:20;;;;;;;6.25;3.45;;;20.00;66.60;;;;;;5012536;28;20432;-54
2023/10/23 08:37:46;;;;;;;8.80;3.20;;;20.00;66.30;;;;;;5012640;28;20026;-53
2023/10/23 08:40:13;;;;;;;8.02;3.17;;;20.10;66.50;;;;;;5012477;28;20126;-56
2023/10/23 08:42:39;;;;;;;9.57;3.20;;;20.00;66.30;;;;;;5012138;28;20461;-55
2023/10/23 08:45:05;;;;;;;8.15;3.25;;;20.00;66.30;;;;;;5012624;28;20030;-53
2023/10/23 08:47:31;;;;;;;14.63;3.88;;;20.00;67.00;;;;;;5012400;28;20033;-49
2023/10/23 08:50:01;;;;;;;7.38;3.00;;;20.00;66.20;;;;;;5012393;28;20040;-51
2023/10/23 08:52:33;;;;;;;11.18;3.60;;;20.10;67.00;;;;;;5011877;28;20026;-55
2023/10/23 08:55:00;;;;;;;10.48;3.10;;;20.10;66.70;;;;;;5012384;28;20032;-56
2023/10/23 08:57:28;;;;;;;8.38;2.97;;;20.10;66.60;;;;;;5012501;28;20473;-56
2023/10/23 08:59:54;;;;;;;10.27;3.60;;;20.10;67.90;;;;;;5012167;28;20028;-54
2023/10/23 09:02:21;;;;;;;4.75;2.60;;;20.10;67.20;;;;;;5011400;28;20026;-57
2023/10/23 09:04:47;;;;;;;6.20;2.78;;;20.10;67.00;;;;;;5012231;28;20061;-56
2023/10/23 09:07:13;;;;;;;8.10;2.78;;;20.10;67.00;;;;;;5012349;28;20069;-58
2023/10/23 09:09:39;;;;;;;18.05;2.92;;;20.20;67.40;;;;;;5012233;28;20504;-57
2023/10/23 09:12:06;;;;;;;8.80;3.33;;;20.20;68.50;;;;;;5011590;28;20030;-56
2023/10/23 09:14:31;;;;;;;11.40;3.42;;;20.30;68.20;;;;;;5012140;28;20026;-57
2023/10/23 09:16:59;;;;;;;9.80;2.90;;;20.30;68.50;;;;;;5011847;28;20021;-55
2023/10/23 09:19:29;;;;;;;8.75;2.95;;;20.30;70.10;;;;;;5011987;28;20033;-55
2023/10/23 09:21:56;;;;;;;10.18;3.63;;;20.40;71.10;;;;;;5011762;28;20105;-52
2023/10/23 09:24:22;;;;;;;7.55;3.90;;;20.40;70.10;;;;;;5011847;28;20032;-55
2023/10/23 09:26:52;;;;;;;10.25;4.22;;;20.30;70.90;;;;;;5012006;28;20038;-55
2023/10/23 09:29:25;;;;;;;10.23;4.22;;;20.20;70.60;;;;;;5011952;28;20109;-55
2023/10/23 09:31:53;;;;;;;10.25;4.85;;;20.10;67.10;;;;;;5011510;28;20073;-56
2023/10/23 09:34:19;;;;;;;11.15;4.28;;;20.10;67.90;;;;;;5011783;28;20041;-56
2023/10/23 09:36:46;;;;;;;10.23;4.50;;;20.00;68.50;;;;;;5011807;28;20041;-55
2023/10/23 09:39:12;;;;;;;11.52;4.18;;;20.00;69.00;;;;;;5011745;28;20026;-54
2023/10/23 09:41:38;;;;;;;19.85;4.60;;;20.10;69.90;;;;;;5011434;28;20061;-51
2023/10/23 09:44:04;;;;;;;13.52;4.05;;;20.10;69.20;;;;;;5011590;28;20117;-55
2023/10/23 09:46:31;;;;;;;17.98;3.92;;;20.20;69.00;;;;;;5011719;28;20045;-51
2023/10/23 09:49:03;;;;;;;9.82;3.75;;;20.20;68.60;;;;;;5011762;28;20060;-50
2023/10/23 09:51:40;;;;;;;15.90;4.15;;;20.20;68.10;;;;;;5011449;28;20038;-53
2023/10/23 09:54:20;;;;;;;22.70;4.57;;;20.20;69.20;;;;;;5011389;28;20501;-54
2023/10/23 09:56:47;;;;;;;;;;;20.20;69.30;;;;;;5012085;28;20026;-50
2023/10/23 09:59:15;;;;;;;35.08;4.70;;;20.20;69.20;;;;;;5011585;28;19913;-49
2023/10/23 10:01:42;;;;;;;28.13;4.60;;;20.20;69.50;;;;;;5011510;28;20382;-50
2023/10/23 10:04:43;;;;;;;20.52;4.07;;;20.20;68.90;;;;;;5005435;28;20030;-54
2023/10/23 10:07:14;;;;;;;22.23;4.53;;;20.10;68.70;;;;;;4943182;28;20031;-51
2023/10/23 10:09:41;;;;;;;34.28;5.00;;;20.20;68.70;;;;;;4988165;28;20073;-53
2023/10/23 10:12:08;;;;;;;21.45;4.10;;;20.20;68.50;;;;;;5005506;28;20409;-54
2023/10/23 10:14:35;;;;;;;24.77;4.35;;;20.20;68.50;;;;;;5010949;28;20026;-48
2023/10/23 10:17:02;;;;;;;29.10;5.00;;;20.30;69.40;;;;;;5009450;28;20025;-52
2023/10/23 10:19:28;;;;;;;14.70;4.32;;;20.30;69.40;;;;;;5006844;28;20077;-49
2023/10/23 10:21:53;;;;;;;14.00;4.63;;;20.30;69.40;;;;;;5003633;28;20030;-49
2023/10/23 10:24:20;;;;;;;21.55;4.47;;;20.30;69.50;;;;;;5001491;28;20042;-51
2023/10/23 10:26:48;;;;;;;17.73;4.50;;;20.40;69.80;;;;;;5001617;28;20053;-48
2023/10/23 10:29:14;;;;;;;18.15;4.82;;;20.30;69.80;;;;;;5001488;28;20068;-49
2023/10/23 10:32:05;;;;;;;17.02;4.15;;;20.30;69.90;;;;;;5006162;28;20389;-55
2023/10/23 10:34:47;;;;;;;9.95;3.60;;;20.30;69.90;;;;;;5001795;28;20029;-51
2023/10/23 10:37:14;;;;;;;11.02;4.07;;;20.40;69.90;;;;;;5010551;28;20095;-51
2023/10/23 10:39:52;;;;;;;12.07;4.10;;;20.40;70.10;;;;;;5011252;28;20018;-50
2023/10/23 10:42:28;;;;;;;17.42;4.45;;;20.40;70.20;;;;;;5011340;28;20405;-52
2023/10/23 10:45:00;;;;;;;12.88;4.10;;;20.40;70.30;;;;;;5011595;28;20030;-51
2023/10/23 10:47:43;;;;;;;13.35;3.90;;;20.40;70.30;;;;;;5012462;28;20049;-49
2023/10/23 10:50:10;;;;;;;16.23;4.00;;;20.40;70.50;;;;;;5012134;28;20108;-47
2023/10/23 10:52:38;;;;;;;15.40;3.78;;;20.40;70.50;;;;;;5011051;28;20497;-51
2023/10/23 10:55:11;;;;;;;12.88;4.28;;;20.40;70.60;;;;;;5011263;28;20061;-48
2023/10/23 10:57:41;;;;;;;9.88;3.50;;;20.50;70.70;;;;;;5011636;28;20037;-50
2023/10/23 11:00:07;;;;;;;12.90;4.13;;;20.50;70.60;;;;;;5011150;28;20109;-49
2023/10/23 11:02:33;;;;;;;13.18;3.88;;;20.40;70.60;;;;;;5007791;28;21033;-52
2023/10/23 11:04:59;;;;;;;11.63;3.60;;;20.40;70.80;;;;;;5000751;28;20543;-49
2023/10/23 11:07:26;;;;;;;15.52;4.22;;;20.40;70.80;;;;;;5010200;28;20041;-50
2023/10/23 11:09:53;;;;;;;11.32;4.05;;;20.40;70.70;;;;;;5010329;28;20034;-54
2023/10/23 11:12:20;;;;;;;10.57;3.78;;;20.50;71.30;;;;;;5010737;28;20029;-52
2023/10/23 11:14:47;;;;;;;11.55;3.45;;;20.50;71.40;;;;;;5010635;28;20033;-53
2023/10/23 11:17:14;;;;;;;26.20;4.45;;;20.50;70.90;;;;;;5010050;28;20099;-49
2023/10/23 11:19:42;;;;;;;19.60;3.90;;;20.60;71.20;;;;;;5012123;28;20091;-48
2023/10/23 11:22:13;;;;;;;18.00;4.10;;;20.50;71.10;;;;;;5011318;28;20615;-51
2023/10/23 11:24:39;;;;;;;15.85;3.65;;;20.50;71.20;;;;;;5010549;28;20486;-47
2023/10/23 11:27:05;;;;;;;14.10;3.75;;;20.60;71.10;;;;;;5009336;28;20041;-50
2023/10/23 11:29:41;;;;;;;18.27;4.20;;;20.60;71.20;;;;;;5010938;28;20036;-49
2023/10/23 11:32:07;;;;;;;14.13;3.58;;;20.60;70.80;;;;;;5017366;28;20034;-45
2023/10/23 11:34:35;;;;;;;13.82;4.05;;;20.60;70.70;;;;;;5010767;28;20104;-47
2023/10/23 11:37:03;;;;;;;14.65;3.42;;;20.60;70.60;;;;;;5009162;28;20105;-46
2023/10/23 11:39:29;;;;;;;15.00;3.72;;;20.50;70.70;;;;;;5004074;28;20121;-47
2023/10/23 11:41:59;;;;;;;10.48;3.60;;;20.50;70.90;;;;;;5010739;28;20026;-47
2023/10/23 11:44:26;;;;;;;14.80;3.90;;;20.50;70.90;;;;;;5010815;28;20054;-47
2023/10/23 11:46:57;;;;;;;13.43;4.10;;;20.50;70.90;;;;;;5011378;28;20086;-47
2023/10/23 11:49:23;;;;;;;12.95;3.80;;;20.50;70.90;;;;;;5010524;28;20040;-45
2023/10/23 11:51:50;;;;;;;11.93;4.07;;;20.50;71.00;;;;;;5010217;28;20021;-48
2023/10/23 11:54:17;;;;;;;7.90;3.20;;;20.50;71.00;;;;;;5063355;23;20138;-56
2023/10/23 11:56:43;;;;;;;11.10;3.78;;;20.50;70.90;;;;;;5070391;28;20013;-56
2023/10/23 11:59:17;;;;;;;14.85;3.90;;;20.50;71.00;;;;;;5070442;28;20021;-54
2023/10/23 12:01:44;;;;;;;10.70;4.20;;;20.50;71.00;;;;;;5070471;28;20399;-55
2023/10/23 12:04:10;;;;;;;14.10;4.05;;;20.50;71.00;;;;;;5070423;28;20025;-56
2023/10/23 12:06:37;;;;;;;13.57;3.78;;;20.50;71.10;;;;;;5070731;28;20036;-55
2023/10/23 12:09:04;;;;;;;12.27;4.10;;;20.50;71.10;;;;;;5070514;28;20028;-54
2023/10/23 12:11:31;;;;;;;10.13;3.60;;;20.50;71.10;;;;;;5052599;28;20078;-53
2023/10/23 12:13:59;;;;;;;9.00;3.88;;;20.50;71.20;;;;;;5070363;28;20101;-57
2023/10/23 12:16:26;;;;;;;9.65;3.95;;;20.40;71.20;;;;;;5069878;28;20012;-55
2023/10/23 12:18:52;;;;;;;12.90;3.88;;;20.50;71.20;;;;;;5070489;28;20138;-53
2023/10/23 12:21:18;;;;;;;13.95;3.95;;;20.40;71.10;;;;;;5069745;28;20507;-54
2023/10/23 12:23:45;;;;;;;12.05;4.20;;;20.40;71.20;;;;;;5070432;28;20384;-52
2023/10/23 12:26:11;;;;;;;16.25;3.90;;;20.40;71.70;;;;;;5069033;28;20151;-57
2023/10/23 12:28:37;;;;;;;8.32;3.88;;;20.40;72.60;;;;;;5069765;28;20087;-54
2023/10/23 12:31:06;;;;;;;17.13;4.25;;;20.50;71.90;;;;;;5069640;28;20521;-56
2023/10/23 12:33:32;;;;;;;17.38;3.90;;;20.50;72.10;;;;;;5070150;28;20108;-51
2023/10/23 12:36:00;;;;;;;19.05;4.57;;;20.40;72.20;;;;;;5069137;28;20194;-58
2023/10/23 12:38:28;;;;;;;9.52;3.83;;;20.40;72.40;;;;;;5069917;28;20020;-53
2023/10/23 12:40:54;;;;;;;13.00;3.97;;;20.50;72.40;;;;;;5052086;28;20043;-54
2023/10/23 12:43:20;;;;;;;13.30;4.40;;;20.50;72.40;;;;;;5069592;28;20032;-52